地図

経路データ

SID SEASON NUMBER BASIN SUBBASIN NAME ISO_TIME NATURE LAT LON WMO_WIND WMO_PRES WMO_AGENCY TRACK_TYPE DIST2LAND LANDFALL IFLAG USA_AGENCY USA_ATCF_ID USA_LAT USA_LON USA_RECORD USA_STATUS USA_WIND USA_PRES USA_SSHS USA_R34_NE USA_R34_SE USA_R34_SW USA_R34_NW USA_R50_NE USA_R50_SE USA_R50_SW USA_R50_NW USA_R64_NE USA_R64_SE USA_R64_SW USA_R64_NW USA_POCI USA_ROCI USA_RMW USA_EYE TOKYO_LAT TOKYO_LON TOKYO_GRADE TOKYO_WIND TOKYO_PRES TOKYO_R50_DIR TOKYO_R50_LONG TOKYO_R50_SHORT TOKYO_R30_DIR TOKYO_R30_LONG TOKYO_R30_SHORT TOKYO_LAND CMA_LAT CMA_LON CMA_CAT CMA_WIND CMA_PRES HKO_LAT HKO_LON HKO_CAT HKO_WIND HKO_PRES NEWDELHI_LAT NEWDELHI_LON NEWDELHI_GRADE NEWDELHI_WIND NEWDELHI_PRES NEWDELHI_CI NEWDELHI_DP NEWDELHI_POCI REUNION_LAT REUNION_LON REUNION_TYPE REUNION_WIND REUNION_PRES REUNION_TNUM REUNION_CI REUNION_RMW REUNION_R34_NE REUNION_R34_SE REUNION_R34_SW REUNION_R34_NW REUNION_R50_NE REUNION_R50_SE REUNION_R50_SW REUNION_R50_NW REUNION_R64_NE REUNION_R64_SE REUNION_R64_SW REUNION_R64_NW BOM_LAT BOM_LON BOM_TYPE BOM_WIND BOM_PRES BOM_TNUM BOM_CI BOM_RMW BOM_R34_NE BOM_R34_SE BOM_R34_SW BOM_R34_NW BOM_R50_NE BOM_R50_SE BOM_R50_SW BOM_R50_NW BOM_R64_NE BOM_R64_SE BOM_R64_SW BOM_R64_NW BOM_ROCI BOM_POCI BOM_EYE BOM_POS_METHOD BOM_PRES_METHOD NADI_LAT NADI_LON NADI_CAT NADI_WIND NADI_PRES WELLINGTON_LAT WELLINGTON_LON WELLINGTON_WIND WELLINGTON_PRES DS824_LAT DS824_LON DS824_STAGE DS824_WIND DS824_PRES TD9636_LAT TD9636_LON TD9636_STAGE TD9636_WIND TD9636_PRES TD9635_LAT TD9635_LON TD9635_WIND TD9635_PRES TD9635_ROCI NEUMANN_LAT NEUMANN_LON NEUMANN_CLASS NEUMANN_WIND NEUMANN_PRES MLC_LAT MLC_LON MLC_CLASS MLC_WIND MLC_PRES USA_GUST BOM_GUST BOM_GUST_PER REUNION_GUST REUNION_GUST_PER USA_SEAHGT USA_SEARAD_NE USA_SEARAD_SE USA_SEARAD_SW USA_SEARAD_NW STORM_SPEED STORM_DIR
1905021S14071 1905 6 SI MM NOT_NAMED 1905-01-21 06:00:00 NR -13.9000 70.7000 reunion main 1546 1536 _____O________ -1 -13.9000 70.7000 99 9.90000 2 251
1905021S14071 1905 6 SI MM NOT_NAMED 1905-01-21 09:00:00 NR -13.9254 70.6179 main 1536 1521 _____P________ -1 -13.9254 70.6179 99 2 252
1905021S14071 1905 6 SI MM NOT_NAMED 1905-01-21 12:00:00 NR -13.9531 70.5306 main 1521 1512 _____P________ -1 -13.9531 70.5306 99 2 252
1905021S14071 1905 6 SI MM NOT_NAMED 1905-01-21 15:00:00 NR -13.9855 70.4327 main 1512 1502 _____P________ -1 -13.9855 70.4327 99 2 251
1905021S14071 1905 6 SI MM NOT_NAMED 1905-01-21 18:00:00 NR -14.0250 70.3190 main 1502 1487 _____P________ -1 -14.0250 70.3190 99 3 250
1905021S14071 1905 6 SI MM NOT_NAMED 1905-01-21 21:00:00 NR -14.0739 70.1842 main 1487 1468 _____P________ -1 -14.0739 70.1842 99 3 249
1905021S14071 1905 6 SI MM NOT_NAMED 1905-01-22 00:00:00 NR -14.1345 70.0230 main 1468 1444 _____P________ -1 -14.1345 70.0230 99 4 249
1905021S14071 1905 6 SI MM NOT_NAMED 1905-01-22 03:00:00 NR -14.2091 69.8300 main 1444 1420 _____P________ -1 -14.2091 69.8300 99 4 248
1905021S14071 1905 6 SI MM NOT_NAMED 1905-01-22 06:00:00 NR -14.3000 69.6000 reunion main 1420 1386 _____O________ -1 -14.3000 69.6000 99 9.90000 5 248
1905021S14071 1905 6 SI MM NOT_NAMED 1905-01-22 09:00:00 NR -14.4093 69.3288 main 1386 1352 _____P________ -1 -14.4093 69.3288 99 6 247
1905021S14071 1905 6 SI MM NOT_NAMED 1905-01-22 12:00:00 NR -14.5383 69.0171 main 1352 1313 _____P________ -1 -14.5383 69.0171 99 7 246
1905021S14071 1905 6 SI MM NOT_NAMED 1905-01-22 15:00:00 NR -14.6885 68.6668 main 1313 1265 _____P________ -1 -14.6885 68.6668 99 8 246
1905021S14071 1905 6 SI MM NOT_NAMED 1905-01-22 18:00:00 NR -14.8610 68.2799 main 1265 1222 _____P________ -1 -14.8610 68.2799 99 9 245
1905021S14071 1905 6 SI MM NOT_NAMED 1905-01-22 21:00:00 NR -15.0571 67.8580 main 1216 1159 _____P________ -1 -15.0571 67.8580 99 9 244
1905021S14071 1905 6 SI MM NOT_NAMED 1905-01-23 00:00:00 NR -15.2781 67.4030 main 1159 1101 _____P________ -1 -15.2781 67.4030 99 10 243
1905021S14071 1905 6 SI MM NOT_NAMED 1905-01-23 03:00:00 NR -15.5253 66.9165 main 1101 1038 _____P________ -1 -15.5253 66.9165 99 11 242
1905021S14071 1905 6 SI MM NOT_NAMED 1905-01-23 06:00:00 NR -15.8000 66.4000 reunion main 1038 975 _____O________ -1 -15.8000 66.4000 99 9.90000 12 243
1905021S14071 1905 6 SI MM NOT_NAMED 1905-01-23 09:00:00 NR -16.0713 65.8163 main 965 893 _____P________ -1 -16.0713 65.8163 99 13 244
1905021S14071 1905 6 SI MM NOT_NAMED 1905-01-23 12:00:00 NR -16.3685 65.1901 main 893 821 _____P________ -1 -16.3685 65.1901 99 14 243
1905021S14071 1905 6 SI MM NOT_NAMED 1905-01-23 15:00:00 NR -16.6915 64.5385 main 811 739 _____P________ -1 -16.6915 64.5385 99 14 242
1905021S14071 1905 6 SI MM NOT_NAMED 1905-01-23 18:00:00 NR -17.0403 63.8784 main 739 662 _____P________ -1 -17.0403 63.8784 99 15 240
1905021S14071 1905 6 SI MM NOT_NAMED 1905-01-23 21:00:00 NR -17.4149 63.2272 main 653 575 _____P________ -1 -17.4149 63.2272 99 14 237
1905021S14071 1905 6 SI MM NOT_NAMED 1905-01-24 00:00:00 NR -17.8160 62.6021 main 575 508 _____P________ -1 -17.8160 62.6021 99 14 234
1905021S14071 1905 6 SI MM NOT_NAMED 1905-01-24 03:00:00 NR -18.2440 62.0205 main 499 427 _____P________ -1 -18.2440 62.0205 99 14 230
1905021S14071 1905 6 SI MM NOT_NAMED 1905-01-24 06:00:00 NR -18.7000 61.5000 reunion main 427 366 _____O________ -1 -18.7000 61.5000 99 9.90000 14 222
1905021S14071 1905 6 SI MM NOT_NAMED 1905-01-24 09:00:00 NR -19.2446 61.0567 main 366 308 _____P________ -1 -19.2446 61.0567 99 14 215
1905021S14071 1905 6 SI MM NOT_NAMED 1905-01-24 12:00:00 NR -19.8300 60.6651 main 308 260 _____P________ -1 -19.8300 60.6651 99 14 210
1905021S14071 1905 6 SI MM NOT_NAMED 1905-01-24 15:00:00 NR -20.4367 60.3230 main 260 241 _____P________ -1 -20.4367 60.3230 99 14 206
1905021S14071 1905 6 SI MM NOT_NAMED 1905-01-24 18:00:00 NR -21.0451 60.0288 main 241 240 _____P________ -1 -21.0451 60.0288 99 13 203
1905021S14071 1905 6 SI MM NOT_NAMED 1905-01-24 21:00:00 NR -21.6354 59.7808 main 250 247 _____P________ -1 -21.6354 59.7808 99 12 200
1905021S14071 1905 6 SI MM NOT_NAMED 1905-01-25 00:00:00 NR -22.1879 59.5776 main 273 273 _____P________ -1 -22.1879 59.5776 99 11 198
1905021S14071 1905 6 SI MM NOT_NAMED 1905-01-25 03:00:00 NR -22.6827 59.4178 main 302 302 _____P________ -1 -22.6827 59.4178 99 10 196
1905021S14071 1905 6 SI MM NOT_NAMED 1905-01-25 06:00:00 NR -23.1000 59.3000 reunion main 334 334 _____O________ -1 -23.1000 59.3000 99 9.90000 8 194
1905021S14071 1905 6 SI MM NOT_NAMED 1905-01-25 09:00:00 NR -23.4252 59.2223 main 359 359 _____P________ -1 -23.4252 59.2223 99 6 191
1905021S14071 1905 6 SI MM NOT_NAMED 1905-01-25 12:00:00 NR -23.6653 59.1804 main 389 389 _____P________ -1 -23.6653 59.1804 99 4 186
1905021S14071 1905 6 SI MM NOT_NAMED 1905-01-25 15:00:00 NR -23.8324 59.1695 main 399 399 _____P________ -1 -23.8324 59.1695 99 3 176
1905021S14071 1905 6 SI MM NOT_NAMED 1905-01-25 18:00:00 NR -23.9389 59.1845 main 410 410 _____P________ -1 -23.9389 59.1845 99 2 168
1905021S14071 1905 6 SI MM NOT_NAMED 1905-01-25 21:00:00 NR -23.9967 59.2202 main 420 420 _____P________ -1 -23.9967 59.2202 99 1 135
1905021S14071 1905 6 SI MM NOT_NAMED 1905-01-26 00:00:00 NR -24.0181 59.2715 main 424 424 _____P________ -1 -24.0181 59.2715 99 1 100
1905021S14071 1905 6 SI MM NOT_NAMED 1905-01-26 03:00:00 NR -24.0151 59.3332 main 424 424 _____P________ -1 -24.0151 59.3332 99 1 81
1905021S14071 1905 6 SI MM NOT_NAMED 1905-01-26 06:00:00 NR -24.0000 59.4000 reunion main 428 _____O________ -1 -24.0000 59.4000 99 9.90000 1 74

IBTrACS Databaseについて

本データベースは、米国NOAAが公開する1842年以降の世界の熱帯低気圧のベストトラックデータアーカイブInternational Best Track Archive for Climate Stewardship (IBTrACS)を、ウェブで閲覧しやすい形式に変換したものです。

最終更新日:2021-10-08